sensor_id;sensor_type;location;lat;lon;timestamp;pressure;altitude;pressure_sealevel;temperature;humidity
46412;BME280;32113;42.012;24.870;2023-03-16T00:02:23;97906.88;;;11.20;46.08
46412;BME280;32113;42.012;24.870;2023-03-16T00:04:49;97905.09;;;11.22;46.53
46412;BME280;32113;42.012;24.870;2023-03-16T00:07:15;97896.56;;;11.21;46.68
46412;BME280;32113;42.012;24.870;2023-03-16T00:09:41;97900.25;;;11.12;46.81
46412;BME280;32113;42.012;24.870;2023-03-16T00:12:14;97906.38;;;11.08;46.57
46412;BME280;32113;42.012;24.870;2023-03-16T00:14:41;97899.47;;;10.82;47.73
46412;BME280;32113;42.012;24.870;2023-03-16T00:17:09;97900.06;;;10.90;47.36
46412;BME280;32113;42.012;24.870;2023-03-16T00:19:34;97905.81;;;10.98;47.16
46412;BME280;32113;42.012;24.870;2023-03-16T00:22:02;97902.19;;;11.06;47.17
46412;BME280;32113;42.012;24.870;2023-03-16T00:24:28;97903.47;;;11.19;46.92
46412;BME280;32113;42.012;24.870;2023-03-16T00:26:53;97906.13;;;11.16;46.29
46412;BME280;32113;42.012;24.870;2023-03-16T00:29:19;97901.19;;;11.10;46.56
46412;BME280;32113;42.012;24.870;2023-03-16T00:31:47;97893.72;;;11.02;47.11
46412;BME280;32113;42.012;24.870;2023-03-16T00:34:12;97904.22;;;10.94;47.39
46412;BME280;32113;42.012;24.870;2023-03-16T00:36:39;97900.63;;;11.00;47.18
46412;BME280;32113;42.012;24.870;2023-03-16T00:39:07;97904.22;;;10.94;47.69
46412;BME280;32113;42.012;24.870;2023-03-16T00:41:35;97900.63;;;11.00;47.29
46412;BME280;32113;42.012;24.870;2023-03-16T00:44:03;97902.13;;;11.07;46.99
46412;BME280;32113;42.012;24.870;2023-03-16T00:46:29;97905.19;;;11.19;47.20
46412;BME280;32113;42.012;24.870;2023-03-16T00:48:55;97915.09;;;11.31;46.65
46412;BME280;32113;42.012;24.870;2023-03-16T00:51:20;97912.53;;;11.31;46.35
46412;BME280;32113;42.012;24.870;2023-03-16T00:53:47;97910.53;;;11.39;46.18
46412;BME280;32113;42.012;24.870;2023-03-16T00:56:13;97913.06;;;11.41;46.48
46412;BME280;32113;42.012;24.870;2023-03-16T00:58:40;97912.97;;;11.44;46.08
46412;BME280;32113;42.012;24.870;2023-03-16T01:01:17;97913.66;;;11.21;47.08
46412;BME280;32113;42.012;24.870;2023-03-16T01:03:43;97918.16;;;11.14;46.79
46412;BME280;32113;42.012;24.870;2023-03-16T01:06:11;97915.47;;;11.19;46.84
46412;BME280;32113;42.012;24.870;2023-03-16T01:08:38;97918.16;;;11.14;46.87
46412;BME280;32113;42.012;24.870;2023-03-16T01:11:13;97920.56;;;11.20;46.50
46412;BME280;32113;42.012;24.870;2023-03-16T01:13:40;97924.16;;;11.14;46.86
46412;BME280;32113;42.012;24.870;2023-03-16T01:16:06;97920.50;;;11.22;47.22
46412;BME280;32113;42.012;24.870;2023-03-16T01:18:32;97921.97;;;11.29;46.87
46412;BME280;32113;42.012;24.870;2023-03-16T01:21:02;97927.44;;;11.47;46.52
46412;BME280;32113;42.012;24.870;2023-03-16T01:23:29;97917.88;;;11.50;46.44
46412;BME280;32113;42.012;24.870;2023-03-16T01:25:56;97915.97;;;11.57;46.14
46412;BME280;32113;42.012;24.870;2023-03-16T01:28:23;97932.41;;;11.51;46.08
46412;BME280;32113;42.012;24.870;2023-03-16T01:30:49;97925.72;;;11.47;45.78
46412;BME280;32113;42.012;24.870;2023-03-16T01:33:19;97921.28;;;11.52;45.94
46412;BME280;32113;42.012;24.870;2023-03-16T01:35:57;97914.53;;;11.48;47.45
46412;BME280;32113;42.012;24.870;2023-03-16T01:38:22;97923.31;;;11.41;47.32
46412;BME280;32113;42.012;24.870;2023-03-16T01:40:49;97918.91;;;11.44;47.87
46412;BME280;32113;42.012;24.870;2023-03-16T01:43:17;97907.78;;;11.46;50.83
46412;BME280;32113;42.012;24.870;2023-03-16T01:48:32;97921.00;;;11.60;50.78
46412;BME280;32113;42.012;24.870;2023-03-16T01:51:04;97922.22;;;11.50;50.86
46412;BME280;32113;42.012;24.870;2023-03-16T01:53:30;97930.03;;;11.45;48.08
46412;BME280;32113;42.012;24.870;2023-03-16T01:55:58;97931.41;;;11.55;49.03
46412;BME280;32113;42.012;24.870;2023-03-16T01:58:26;97931.63;;;11.49;50.54
46412;BME280;32113;42.012;24.870;2023-03-16T02:00:52;97928.06;;;11.53;50.72
46412;BME280;32113;42.012;24.870;2023-03-16T02:03:18;97923.72;;;11.55;51.42
46412;BME280;32113;42.012;24.870;2023-03-16T02:06:09;97926.44;;;11.51;52.97
46412;BME280;32113;42.012;24.870;2023-03-16T02:08:38;97933.94;;;11.57;52.05
46412;BME280;32113;42.012;24.870;2023-03-16T02:11:03;97935.19;;;11.45;52.06
46412;BME280;32113;42.012;24.870;2023-03-16T02:13:30;97937.16;;;11.37;50.34
46412;BME280;32113;42.012;24.870;2023-03-16T02:15:58;97944.75;;;11.40;49.82
46412;BME280;32113;42.012;24.870;2023-03-16T02:18:24;97944.00;;;11.38;49.77
46412;BME280;32113;42.012;24.870;2023-03-16T02:20:56;97942.28;;;11.37;48.14
46412;BME280;32113;42.012;24.870;2023-03-16T02:23:29;97948.69;;;11.23;49.28
46412;BME280;32113;42.012;24.870;2023-03-16T02:31:01;97940.69;;;11.33;52.64
46412;BME280;32113;42.012;24.870;2023-03-16T02:33:27;97955.97;;;11.37;51.94
46412;BME280;32113;42.012;24.870;2023-03-16T02:35:54;97953.53;;;11.33;49.97
46412;BME280;32113;42.012;24.870;2023-03-16T02:38:19;97961.34;;;11.29;51.49
46412;BME280;32113;42.012;24.870;2023-03-16T02:40:54;97956.50;;;11.20;52.71
46412;BME280;32113;42.012;24.870;2023-03-16T02:43:25;97958.13;;;11.23;52.28
46412;BME280;32113;42.012;24.870;2023-03-16T02:45:58;97960.53;;;11.27;52.35
46412;BME280;32113;42.012;24.870;2023-03-16T02:48:29;97956.53;;;11.19;51.72
46412;BME280;32113;42.012;24.870;2023-03-16T02:50:57;97958.91;;;11.25;51.95
46412;BME280;32113;42.012;24.870;2023-03-16T02:53:22;97965.22;;;11.43;51.43
46412;BME280;32113;42.012;24.870;2023-03-16T02:55:48;97966.75;;;11.49;51.20
46412;BME280;32113;42.012;24.870;2023-03-16T02:58:14;97963.16;;;11.54;51.14
46412;BME280;32113;42.012;24.870;2023-03-16T03:00:40;97975.09;;;11.55;50.24
46412;BME280;32113;42.012;24.870;2023-03-16T03:03:06;97975.91;;;11.57;50.45
46412;BME280;32113;42.012;24.870;2023-03-16T03:05:34;97980.09;;;11.60;49.54
46412;BME280;32113;42.012;24.870;2023-03-16T03:07:59;97983.34;;;11.65;49.73
46412;BME280;32113;42.012;24.870;2023-03-16T03:10:25;97991.75;;;11.70;49.73
46412;BME280;32113;42.012;24.870;2023-03-16T03:12:50;97986.88;;;11.63;49.60
46412;BME280;32113;42.012;24.870;2023-03-16T03:15:16;97993.19;;;11.52;49.51
46412;BME280;32113;42.012;24.870;2023-03-16T03:17:42;97992.53;;;11.46;49.08
46412;BME280;32113;42.012;24.870;2023-03-16T03:20:09;97994.59;;;11.34;49.40
46412;BME280;32113;42.012;24.870;2023-03-16T03:22:40;98000.88;;;11.24;49.28
46412;BME280;32113;42.012;24.870;2023-03-16T03:25:06;98005.59;;;11.09;49.77
46412;BME280;32113;42.012;24.870;2023-03-16T03:27:33;98006.88;;;10.94;49.98
46412;BME280;32113;42.012;24.870;2023-03-16T03:29:58;98008.91;;;10.83;50.13
46412;BME280;32113;42.012;24.870;2023-03-16T03:32:24;98009.19;;;10.72;49.85
46412;BME280;32113;42.012;24.870;2023-03-16T03:34:49;98015.25;;;10.69;50.17
46412;BME280;32113;42.012;24.870;2023-03-16T03:37:15;98013.63;;;10.67;49.84
46412;BME280;32113;42.012;24.870;2023-03-16T03:39:40;98012.56;;;10.74;49.82
46412;BME280;32113;42.012;24.870;2023-03-16T03:42:06;98017.97;;;10.64;49.66
46412;BME280;32113;42.012;24.870;2023-03-16T03:44:31;98024.84;;;10.62;49.46
46412;BME280;32113;42.012;24.870;2023-03-16T03:46:59;98020.56;;;10.63;49.75
46412;BME280;32113;42.012;24.870;2023-03-16T03:49:25;98012.44;;;10.47;50.29
46412;BME280;32113;42.012;24.870;2023-03-16T03:51:50;98024.41;;;10.46;50.18
46412;BME280;32113;42.012;24.870;2023-03-16T03:54:16;98020.13;;;10.47;49.98
46412;BME280;32113;42.012;24.870;2023-03-16T03:56:41;98019.41;;;10.40;50.23
46412;BME280;32113;42.012;24.870;2023-03-16T03:59:07;98024.06;;;10.25;50.27
46412;BME280;32113;42.012;24.870;2023-03-16T04:01:32;98019.84;;;10.24;50.55
46412;BME280;32113;42.012;24.870;2023-03-16T04:03:57;98021.50;;;10.25;50.32
46412;BME280;32113;42.012;24.870;2023-03-16T04:06:23;98030.22;;;10.18;50.61
46412;BME280;32113;42.012;24.870;2023-03-16T04:08:48;98026.94;;;10.13;50.51
46412;BME280;32113;42.012;24.870;2023-03-16T04:11:15;98033.84;;;10.11;50.38
46412;BME280;32113;42.012;24.870;2023-03-16T04:13:40;98030.44;;;10.09;50.62
46412;BME280;32113;42.012;24.870;2023-03-16T04:16:06;98040.63;;;10.12;50.29
46412;BME280;32113;42.012;24.870;2023-03-16T04:18:31;98042.03;;;10.24;50.08
46412;BME280;32113;42.012;24.870;2023-03-16T04:21:06;98041.47;;;10.12;50.18
46412;BME280;32113;42.012;24.870;2023-03-16T04:23:33;98039.81;;;10.10;50.43
46412;BME280;32113;42.012;24.870;2023-03-16T04:25:59;98044.94;;;10.10;50.28
46412;BME280;32113;42.012;24.870;2023-03-16T04:28:25;98046.03;;;9.99;50.30
46412;BME280;32113;42.012;24.870;2023-03-16T04:30:51;98050.25;;;10.02;50.22
46412;BME280;32113;42.012;24.870;2023-03-16T04:33:21;98063.16;;;9.99;51.05
46412;BME280;32113;42.012;24.870;2023-03-16T04:35:47;98059.78;;;9.97;50.53
46412;BME280;32113;42.012;24.870;2023-03-16T04:38:12;98066.53;;;9.99;50.55
46412;BME280;32113;42.012;24.870;2023-03-16T04:40:38;98070.16;;;9.92;50.47
46412;BME280;32113;42.012;24.870;2023-03-16T04:43:03;98074.75;;;9.78;50.58
46412;BME280;32113;42.012;24.870;2023-03-16T04:45:29;98078.22;;;9.75;50.80
46412;BME280;32113;42.012;24.870;2023-03-16T04:47:54;98079.38;;;9.62;51.27
46412;BME280;32113;42.012;24.870;2023-03-16T04:50:20;98084.56;;;9.58;51.22
46412;BME280;32113;42.012;24.870;2023-03-16T04:52:47;98084.31;;;9.69;51.06
46412;BME280;32113;42.012;24.870;2023-03-16T04:55:12;98089.47;;;9.68;50.89
46412;BME280;32113;42.012;24.870;2023-03-16T04:57:37;98102.16;;;9.72;50.56
46412;BME280;32113;42.012;24.870;2023-03-16T05:00:04;98092.84;;;9.70;50.81
46412;BME280;32113;42.012;24.870;2023-03-16T05:02:38;98097.41;;;9.55;51.46
46412;BME280;32113;42.012;24.870;2023-03-16T05:05:04;98099.38;;;9.44;51.58
46412;BME280;32113;42.012;24.870;2023-03-16T05:07:30;98100.00;;;9.54;51.42
46412;BME280;32113;42.012;24.870;2023-03-16T05:09:56;98106.34;;;9.37;51.76
46412;BME280;32113;42.012;24.870;2023-03-16T05:12:21;98115.59;;;9.44;51.41
46412;BME280;32113;42.012;24.870;2023-03-16T05:14:47;98115.06;;;9.28;51.85
46412;BME280;32113;42.012;24.870;2023-03-16T05:17:12;98122.09;;;9.17;51.93
46412;BME280;32113;42.012;24.870;2023-03-16T05:19:39;98130.66;;;9.16;52.10
46412;BME280;32113;42.012;24.870;2023-03-16T05:22:04;98130.53;;;9.20;52.06
46412;BME280;32113;42.012;24.870;2023-03-16T05:24:31;98130.69;;;9.14;51.88
46412;BME280;32113;42.012;24.870;2023-03-16T05:26:56;98136.66;;;9.13;51.83
46412;BME280;32113;42.012;24.870;2023-03-16T05:29:22;98137.47;;;9.15;52.05
46412;BME280;32113;42.012;24.870;2023-03-16T05:31:47;98139.06;;;9.23;51.40
46412;BME280;32113;42.012;24.870;2023-03-16T05:34:12;98139.84;;;9.25;51.44
46412;BME280;32113;42.012;24.870;2023-03-16T05:36:38;98150.22;;;9.18;51.70
46412;BME280;32113;42.012;24.870;2023-03-16T05:39:03;98148.56;;;9.16;51.03
46412;BME280;32113;42.012;24.870;2023-03-16T05:41:29;98149.47;;;9.13;51.10
46412;BME280;32113;42.012;24.870;2023-03-16T05:43:54;98151.88;;;9.21;51.15
46412;BME280;32113;42.012;24.870;2023-03-16T05:46:19;98155.31;;;9.20;50.74
46412;BME280;32113;42.012;24.870;2023-03-16T05:48:45;98158.75;;;9.19;50.21
46412;BME280;32113;42.012;24.870;2023-03-16T05:51:10;98162.09;;;9.23;50.56
46412;BME280;32113;42.012;24.870;2023-03-16T05:53:38;98173.13;;;9.25;50.47
46412;BME280;32113;42.012;24.870;2023-03-16T05:56:03;98176.53;;;9.25;50.01
46412;BME280;32113;42.012;24.870;2023-03-16T05:58:30;98173.31;;;9.14;50.19
46412;BME280;32113;42.012;24.870;2023-03-16T06:01:00;98186.97;;;9.14;49.97
46412;BME280;32113;42.012;24.870;2023-03-16T06:03:26;98184.41;;;9.14;49.95
46412;BME280;32113;42.012;24.870;2023-03-16T06:05:52;98193.72;;;9.20;49.89
46412;BME280;32113;42.012;24.870;2023-03-16T06:08:17;98194.59;;;9.17;49.55
46412;BME280;32113;42.012;24.870;2023-03-16T06:10:46;98200.72;;;9.09;49.66
46412;BME280;32113;42.012;24.870;2023-03-16T06:13:12;98203.03;;;9.23;49.34
46412;BME280;32113;42.012;24.870;2023-03-16T06:15:37;98205.59;;;9.23;49.32
46412;BME280;32113;42.012;24.870;2023-03-16T06:18:03;98214.09;;;9.23;49.03
46412;BME280;32113;42.012;24.870;2023-03-16T06:20:28;98206.41;;;9.25;49.09
46412;BME280;32113;42.012;24.870;2023-03-16T06:22:53;98230.28;;;9.25;48.81
46412;BME280;32113;42.012;24.870;2023-03-16T06:25:19;98233.63;;;9.30;48.18
46412;BME280;32113;42.012;24.870;2023-03-16T06:27:44;98228.31;;;9.41;47.92
46412;BME280;32113;42.012;24.870;2023-03-16T06:30:12;98225.03;;;9.33;48.13
46412;BME280;32113;42.012;24.870;2023-03-16T06:32:38;98231.06;;;9.29;48.38
46412;BME280;32113;42.012;24.870;2023-03-16T06:35:06;98242.06;;;9.34;48.02
46412;BME280;32113;42.012;24.870;2023-03-16T06:37:32;98248.13;;;9.30;48.38
46412;BME280;32113;42.012;24.870;2023-03-16T06:39:58;98251.31;;;9.43;47.80
46412;BME280;32113;42.012;24.870;2023-03-16T06:42:23;98251.16;;;9.51;47.60
46412;BME280;32113;42.012;24.870;2023-03-16T06:44:49;98254.47;;;9.56;47.09
46412;BME280;32113;42.012;24.870;2023-03-16T06:47:16;98253.66;;;9.54;47.50
46412;BME280;32113;42.012;24.870;2023-03-16T06:49:41;98286.91;;;9.57;46.83
46412;BME280;32113;42.012;24.870;2023-03-16T06:52:07;98275.91;;;9.52;47.08
46412;BME280;32113;42.012;24.870;2023-03-16T06:54:34;98285.50;;;9.40;46.89
46412;BME280;32113;42.012;24.870;2023-03-16T06:57:02;98281.19;;;9.42;47.11
46412;BME280;32113;42.012;24.870;2023-03-16T06:59:28;98291.44;;;9.41;47.27
46412;BME280;32113;42.012;24.870;2023-03-16T07:01:53;98287.91;;;9.50;46.60
46412;BME280;32113;42.012;24.870;2023-03-16T07:04:19;98286.94;;;9.54;46.56
46412;BME280;32113;42.012;24.870;2023-03-16T07:06:44;98300.59;;;9.54;46.33
46412;BME280;32113;42.012;24.870;2023-03-16T07:09:10;98301.47;;;9.55;46.29
46412;BME280;32113;42.012;24.870;2023-03-16T07:11:37;98307.66;;;9.43;46.03
46412;BME280;32113;42.012;24.870;2023-03-16T07:14:02;98311.63;;;9.58;46.08
46412;BME280;32113;42.012;24.870;2023-03-16T07:16:27;98304.88;;;9.54;46.25
46412;BME280;32113;42.012;24.870;2023-03-16T07:18:53;98320.03;;;9.66;46.00
46412;BME280;32113;42.012;24.870;2023-03-16T07:21:19;98312.84;;;9.85;45.45
46412;BME280;32113;42.012;24.870;2023-03-16T07:23:44;98323.78;;;9.94;44.95
46412;BME280;32113;42.012;24.870;2023-03-16T07:26:11;98325.72;;;9.82;44.85
46412;BME280;32113;42.012;24.870;2023-03-16T07:28:39;98327.50;;;9.79;44.49
46412;BME280;32113;42.012;24.870;2023-03-16T07:31:05;98330.78;;;9.85;44.51
46412;BME280;32113;42.012;24.870;2023-03-16T07:33:32;98335.28;;;9.72;44.68
46412;BME280;32113;42.012;24.870;2023-03-16T07:35:58;98337.75;;;9.79;44.59
46412;BME280;32113;42.012;24.870;2023-03-16T07:38:23;98329.09;;;9.84;44.62
46412;BME280;32113;42.012;24.870;2023-03-16T07:40:49;98337.97;;;9.66;44.50
46412;BME280;32113;42.012;24.870;2023-03-16T07:43:16;98339.75;;;9.61;44.45
46412;BME280;32113;42.012;24.870;2023-03-16T07:45:46;98344.75;;;9.67;44.59
46412;BME280;32113;42.012;24.870;2023-03-16T07:48:12;98343.84;;;9.70;44.03
46412;BME280;32113;42.012;24.870;2023-03-16T07:50:37;98347.38;;;9.66;44.27
46412;BME280;32113;42.012;24.870;2023-03-16T07:53:02;98359.22;;;9.71;44.29
46412;BME280;32113;42.012;24.870;2023-03-16T07:55:29;98349.78;;;9.75;44.17
46412;BME280;32113;42.012;24.870;2023-03-16T07:57:56;98355.56;;;9.83;44.03
46412;BME280;32113;42.012;24.870;2023-03-16T08:00:21;98357.22;;;9.86;43.70
46412;BME280;32113;42.012;24.870;2023-03-16T08:02:49;98359.16;;;9.75;43.98
46412;BME280;32113;42.012;24.870;2023-03-16T08:05:14;98354.78;;;9.80;44.13
46412;BME280;32113;42.012;24.870;2023-03-16T08:07:40;98354.94;;;9.72;43.89
46412;BME280;32113;42.012;24.870;2023-03-16T08:10:06;98349.09;;;9.65;44.30
46412;BME280;32113;42.012;24.870;2023-03-16T08:12:31;98357.72;;;9.58;44.20
46412;BME280;32113;42.012;24.870;2023-03-16T08:14:57;98351.72;;;9.60;44.33
46412;BME280;32113;42.012;24.870;2023-03-16T08:17:23;98340.63;;;9.60;44.95
46412;BME280;32113;42.012;24.870;2023-03-16T08:19:48;98348.31;;;9.60;44.69
46412;BME280;32113;42.012;24.870;2023-03-16T08:22:13;98343.97;;;9.64;44.62
46412;BME280;32113;42.012;24.870;2023-03-16T08:24:39;98361.00;;;9.66;44.63
46412;BME280;32113;42.012;24.870;2023-03-16T08:27:04;98351.66;;;9.64;44.43
46412;BME280;32113;42.012;24.870;2023-03-16T08:29:30;98352.44;;;9.69;44.48
46412;BME280;32113;42.012;24.870;2023-03-16T08:31:58;98360.13;;;9.67;44.74
46412;BME280;32113;42.012;24.870;2023-03-16T08:34:25;98358.53;;;9.62;45.05
46412;BME280;32113;42.012;24.870;2023-03-16T08:36:51;98355.84;;;9.69;44.77
46412;BME280;32113;42.012;24.870;2023-03-16T08:39:16;98364.34;;;9.70;44.67
46412;BME280;32113;42.012;24.870;2023-03-16T08:41:42;98359.13;;;9.78;44.41
46412;BME280;32113;42.012;24.870;2023-03-16T08:44:10;98358.97;;;9.85;44.48
46412;BME280;32113;42.012;24.870;2023-03-16T08:46:35;98364.94;;;9.86;44.52
46412;BME280;32113;42.012;24.870;2023-03-16T08:49:01;98368.28;;;9.90;44.07
46412;BME280;32113;42.012;24.870;2023-03-16T08:51:27;98364.16;;;9.81;44.06
46412;BME280;32113;42.012;24.870;2023-03-16T08:53:54;98366.81;;;9.78;44.47
46412;BME280;32113;42.012;24.870;2023-03-16T08:56:19;98377.06;;;9.76;44.31
46412;BME280;32113;42.012;24.870;2023-03-16T08:58:45;98374.41;;;9.81;44.49
46412;BME280;32113;42.012;24.870;2023-03-16T09:01:12;98368.56;;;9.72;44.65
46412;BME280;32113;42.012;24.870;2023-03-16T09:03:38;98369.53;;;9.68;44.56
46412;BME280;32113;42.012;24.870;2023-03-16T09:06:06;98377.94;;;9.75;44.44
46412;BME280;32113;42.012;24.870;2023-03-16T09:08:34;98375.31;;;9.78;44.40
46412;BME280;32113;42.012;24.870;2023-03-16T09:11:08;98373.50;;;9.83;44.23
46412;BME280;32113;42.012;24.870;2023-03-16T09:13:35;98387.00;;;9.95;43.88
46412;BME280;32113;42.012;24.870;2023-03-16T09:16:02;98388.72;;;9.93;44.04
46412;BME280;32113;42.012;24.870;2023-03-16T09:18:28;98383.75;;;9.85;43.54
46412;BME280;32113;42.012;24.870;2023-03-16T09:20:57;98387.19;;;9.84;43.59
46412;BME280;32113;42.012;24.870;2023-03-16T10:09:57;98397.16;;;10.45;42.40
46412;BME280;32113;42.012;24.870;2023-03-16T10:12:36;98400.28;;;10.60;41.96
46412;BME280;32113;42.012;24.870;2023-03-16T10:15:26;98395.91;;;10.65;41.30
46412;BME280;32113;42.012;24.870;2023-03-16T10:18:17;98405.16;;;10.72;40.95
46412;BME280;32113;42.012;24.870;2023-03-16T10:20:45;98391.84;;;10.55;41.69
46412;BME280;32113;42.012;24.870;2023-03-16T10:23:19;98408.91;;;10.56;41.50
46412;BME280;32113;42.012;24.870;2023-03-16T10:25:48;98396.06;;;10.57;41.72
46412;BME280;32113;42.012;24.870;2023-03-16T10:28:25;98393.38;;;10.62;41.29
46412;BME280;32113;42.012;24.870;2023-03-16T10:30:54;98387.47;;;10.58;41.27
46412;BME280;32113;42.012;24.870;2023-03-16T10:33:33;98398.81;;;10.48;41.60
46412;BME280;32113;42.012;24.870;2023-03-16T10:36:11;98398.66;;;10.56;41.59
46412;BME280;32113;42.012;24.870;2023-03-16T10:38:43;98389.84;;;10.68;41.48
46412;BME280;32113;42.012;24.870;2023-03-16T10:43:59;98401.16;;;10.98;40.92
46412;BME280;32113;42.012;24.870;2023-03-16T10:46:40;98388.94;;;11.10;40.81
46412;BME280;32113;42.012;24.870;2023-03-16T10:49:37;98381.09;;;11.16;40.18
46412;BME280;32113;42.012;24.870;2023-03-16T10:52:37;98383.63;;;11.17;40.25
46412;BME280;32113;42.012;24.870;2023-03-16T10:55:39;98393.56;;;11.32;40.76
46412;BME280;32113;42.012;24.870;2023-03-16T10:58:07;98382.28;;;11.39;39.90
46412;BME280;32113;42.012;24.870;2023-03-16T11:00:40;98386.88;;;11.26;39.91
46412;BME280;32113;42.012;24.870;2023-03-16T11:03:37;98380.84;;;11.27;39.70
46412;BME280;32113;42.012;24.870;2023-03-16T11:06:06;98377.44;;;11.25;39.72
46412;BME280;32113;42.012;24.870;2023-03-16T11:08:35;98377.44;;;11.25;39.56
46412;BME280;32113;42.012;24.870;2023-03-16T11:13:36;98383.91;;;11.41;39.59
46412;BME280;32113;42.012;24.870;2023-03-16T11:18:56;98385.34;;;11.53;39.45
46412;BME280;32113;42.012;24.870;2023-03-16T11:24:01;98385.31;;;11.55;38.63
46412;BME280;32113;42.012;24.870;2023-03-16T11:26:39;98373.50;;;11.48;39.06
46412;BME280;32113;42.012;24.870;2023-03-16T11:31:46;98378.88;;;11.72;39.08
46412;BME280;32113;42.012;24.870;2023-03-16T11:34:20;98372.53;;;11.85;38.38
46412;BME280;32113;42.012;24.870;2023-03-16T11:36:56;98375.75;;;11.93;38.38
46412;BME280;32113;42.012;24.870;2023-03-16T11:42:37;98367.34;;;11.88;37.95
46412;BME280;32113;42.012;24.870;2023-03-16T11:45:18;98372.50;;;11.87;37.45
46412;BME280;32113;42.012;24.870;2023-03-16T11:56:22;98378.16;;;12.00;38.20
46412;BME280;32113;42.012;24.870;2023-03-16T12:02:02;98388.69;;;11.90;38.15
46412;BME280;32113;42.012;24.870;2023-03-16T12:07:25;98391.34;;;11.87;38.54
46412;BME280;32113;42.012;24.870;2023-03-16T12:17:56;98403.09;;;11.63;38.46
46412;BME280;32113;42.012;24.870;2023-03-16T12:21:01;98402.25;;;11.62;38.28
46412;BME280;32113;42.012;24.870;2023-03-16T12:23:41;98406.59;;;11.60;38.55
46412;BME280;32113;42.012;24.870;2023-03-16T12:26:07;98403.97;;;11.62;38.38
46412;BME280;32113;42.012;24.870;2023-03-16T12:28:33;98404.69;;;11.68;38.46
46412;BME280;32113;42.012;24.870;2023-03-16T12:31:14;98405.84;;;11.56;38.12
46412;BME280;32113;42.012;24.870;2023-03-16T12:36:30;98414.38;;;11.57;38.72
46412;BME280;32113;42.012;24.870;2023-03-16T12:39:05;98410.75;;;11.66;38.30
46412;BME280;32113;42.012;24.870;2023-03-16T12:44:38;98411.19;;;11.47;38.49
46412;BME280;32113;42.012;24.870;2023-03-16T12:47:29;98430.97;;;11.42;38.10
46412;BME280;32113;42.012;24.870;2023-03-16T12:50:09;98434.75;;;11.28;38.63
46412;BME280;32113;42.012;24.870;2023-03-16T12:52:42;98430.72;;;11.16;39.00
46412;BME280;32113;42.012;24.870;2023-03-16T12:57:39;98427.31;;;11.16;39.03
46412;BME280;32113;42.012;24.870;2023-03-16T13:00:06;98430.69;;;11.18;39.38
46412;BME280;32113;42.012;24.870;2023-03-16T13:02:35;98434.59;;;11.35;39.30
46412;BME280;32113;42.012;24.870;2023-03-16T13:05:12;98436.97;;;11.42;38.79
46412;BME280;32113;42.012;24.870;2023-03-16T13:07:51;98453.81;;;11.54;38.50
46412;BME280;32113;42.012;24.870;2023-03-16T13:10:27;98433.66;;;11.39;38.29
46412;BME280;32113;42.012;24.870;2023-03-16T13:12:53;98442.81;;;11.49;38.74
46412;BME280;32113;42.012;24.870;2023-03-16T13:17:48;98448.91;;;11.45;38.54
46412;BME280;32113;42.012;24.870;2023-03-16T13:20:26;98451.47;;;11.45;38.47
46412;BME280;32113;42.012;24.870;2023-03-16T13:28:32;98463.38;;;11.49;38.93
46412;BME280;32113;42.012;24.870;2023-03-16T13:30:59;98462.63;;;11.44;39.06
46412;BME280;32113;42.012;24.870;2023-03-16T13:33:34;98458.63;;;11.32;39.43
46412;BME280;32113;42.012;24.870;2023-03-16T13:36:03;98471.22;;;11.43;40.46
46412;BME280;32113;42.012;24.870;2023-03-16T13:38:30;98468.38;;;11.54;40.67
46412;BME280;32113;42.012;24.870;2023-03-16T13:41:01;98471.34;;;11.37;39.64
46412;BME280;32113;42.012;24.870;2023-03-16T13:43:29;98476.75;;;11.26;40.06
46412;BME280;32113;42.012;24.870;2023-03-16T13:45:57;98478.28;;;11.33;39.97
46412;BME280;32113;42.012;24.870;2023-03-16T13:48:23;98475.97;;;11.21;40.23
46412;BME280;32113;42.012;24.870;2023-03-16T13:50:51;98479.56;;;11.13;40.14
46412;BME280;32113;42.012;24.870;2023-03-16T13:53:22;98491.88;;;10.99;40.35
46412;BME280;32113;42.012;24.870;2023-03-16T13:55:50;98495.41;;;10.91;40.42
46412;BME280;32113;42.012;24.870;2023-03-16T13:58:23;98495.41;;;10.91;40.00
46412;BME280;32113;42.012;24.870;2023-03-16T14:00:55;98496.81;;;11.08;40.31
46412;BME280;32113;42.012;24.870;2023-03-16T14:03:22;98505.09;;;11.21;39.74
46412;BME280;32113;42.012;24.870;2023-03-16T14:05:48;98500.88;;;11.17;39.01
46412;BME280;32113;42.012;24.870;2023-03-16T14:08:19;98501.63;;;11.22;38.92
46412;BME280;32113;42.012;24.870;2023-03-16T14:10:45;98508.25;;;11.33;39.12
46412;BME280;32113;42.012;24.870;2023-03-16T14:16:12;98507.41;;;11.32;39.07
46412;BME280;32113;42.012;24.870;2023-03-16T14:18:41;98522.97;;;11.26;39.47
46412;BME280;32113;42.012;24.870;2023-03-16T14:21:12;98523.03;;;11.23;39.52
46412;BME280;32113;42.012;24.870;2023-03-16T14:23:42;98518.72;;;11.23;39.07
46412;BME280;32113;42.012;24.870;2023-03-16T14:26:15;98531.63;;;11.22;39.26
46412;BME280;32113;42.012;24.870;2023-03-16T14:31:48;98530.94;;;11.13;39.53
46412;BME280;32113;42.012;24.870;2023-03-16T14:34:34;98532.81;;;11.03;40.00
46412;BME280;32113;42.012;24.870;2023-03-16T14:37:14;98541.34;;;11.06;40.24
46412;BME280;32113;42.012;24.870;2023-03-16T14:39:43;98540.13;;;10.81;40.62
46412;BME280;32113;42.012;24.870;2023-03-16T14:42:22;98537.66;;;10.76;40.95
46412;BME280;32113;42.012;24.870;2023-03-16T14:44:51;98549.44;;;10.85;40.81
46412;BME280;32113;42.012;24.870;2023-03-16T14:47:26;98549.53;;;10.81;40.70
46412;BME280;32113;42.012;24.870;2023-03-16T14:49:53;98559.94;;;10.73;40.71
46412;BME280;32113;42.012;24.870;2023-03-16T14:52:31;98576.50;;;10.56;41.02
46412;BME280;32113;42.012;24.870;2023-03-16T14:54:58;98565.56;;;10.43;41.62
46412;BME280;32113;42.012;24.870;2023-03-16T14:57:25;98573.22;;;10.48;41.34